sensor_id;sensor_type;location;lat;lon;timestamp;P1;durP1;ratioP1;P2;durP2;ratioP2
15132;SDS011;7667;51.232;17.110;2023-07-09T00:02:05;8.03;;;7.23;;
15132;SDS011;7667;51.232;17.110;2023-07-09T00:04:37;10.43;;;8.20;;
15132;SDS011;7667;51.232;17.110;2023-07-09T00:07:05;11.60;;;6.93;;
15132;SDS011;7667;51.232;17.110;2023-07-09T00:09:59;9.40;;;5.97;;
15132;SDS011;7667;51.232;17.110;2023-07-09T00:12:27;7.67;;;5.80;;
15132;SDS011;7667;51.232;17.110;2023-07-09T00:14:55;7.07;;;5.50;;
15132;SDS011;7667;51.232;17.110;2023-07-09T00:17:27;7.23;;;5.83;;
15132;SDS011;7667;51.232;17.110;2023-07-09T00:20:00;4.53;;;4.13;;
15132;SDS011;7667;51.232;17.110;2023-07-09T00:22:32;7.30;;;4.40;;
15132;SDS011;7667;51.232;17.110;2023-07-09T00:25:01;5.37;;;3.80;;
15132;SDS011;7667;51.232;17.110;2023-07-09T00:27:29;4.93;;;3.83;;
15132;SDS011;7667;51.232;17.110;2023-07-09T00:30:00;6.50;;;4.30;;
15132;SDS011;7667;51.232;17.110;2023-07-09T00:32:29;5.07;;;4.20;;
15132;SDS011;7667;51.232;17.110;2023-07-09T00:34:57;5.30;;;4.20;;
15132;SDS011;7667;51.232;17.110;2023-07-09T00:37:24;6.10;;;5.40;;
15132;SDS011;7667;51.232;17.110;2023-07-09T00:39:53;7.60;;;4.93;;
15132;SDS011;7667;51.232;17.110;2023-07-09T00:42:21;6.27;;;4.57;;
15132;SDS011;7667;51.232;17.110;2023-07-09T00:44:51;6.97;;;4.60;;
15132;SDS011;7667;51.232;17.110;2023-07-09T00:47:25;7.00;;;4.50;;
15132;SDS011;7667;51.232;17.110;2023-07-09T00:53:03;4.70;;;4.10;;
15132;SDS011;7667;51.232;17.110;2023-07-09T00:55:39;5.63;;;4.43;;
15132;SDS011;7667;51.232;17.110;2023-07-09T00:58:10;6.57;;;4.30;;
15132;SDS011;7667;51.232;17.110;2023-07-09T01:00:46;4.97;;;4.10;;
15132;SDS011;7667;51.232;17.110;2023-07-09T01:03:35;4.90;;;4.40;;
15132;SDS011;7667;51.232;17.110;2023-07-09T01:06:09;5.20;;;4.57;;
15132;SDS011;7667;51.232;17.110;2023-07-09T01:08:39;5.57;;;4.80;;
15132;SDS011;7667;51.232;17.110;2023-07-09T01:11:20;6.77;;;4.70;;
15132;SDS011;7667;51.232;17.110;2023-07-09T01:13:52;5.97;;;5.37;;
15132;SDS011;7667;51.232;17.110;2023-07-09T01:16:25;5.80;;;5.20;;
15132;SDS011;7667;51.232;17.110;2023-07-09T01:18:57;8.73;;;6.67;;
15132;SDS011;7667;51.232;17.110;2023-07-09T01:21:27;8.07;;;6.40;;
15132;SDS011;7667;51.232;17.110;2023-07-09T01:23:55;7.63;;;6.67;;
15132;SDS011;7667;51.232;17.110;2023-07-09T01:26:25;8.23;;;5.77;;
15132;SDS011;7667;51.232;17.110;2023-07-09T01:28:54;6.80;;;5.37;;
15132;SDS011;7667;51.232;17.110;2023-07-09T01:31:23;7.43;;;5.40;;
15132;SDS011;7667;51.232;17.110;2023-07-09T01:33:51;6.27;;;5.63;;
15132;SDS011;7667;51.232;17.110;2023-07-09T01:36:20;8.60;;;5.33;;
15132;SDS011;7667;51.232;17.110;2023-07-09T01:38:49;6.60;;;5.47;;
15132;SDS011;7667;51.232;17.110;2023-07-09T01:41:20;6.23;;;5.30;;
15132;SDS011;7667;51.232;17.110;2023-07-09T01:43:48;6.90;;;5.20;;
15132;SDS011;7667;51.232;17.110;2023-07-09T01:46:16;7.30;;;4.97;;
15132;SDS011;7667;51.232;17.110;2023-07-09T01:48:44;6.23;;;5.00;;
15132;SDS011;7667;51.232;17.110;2023-07-09T01:51:13;6.63;;;5.13;;
15132;SDS011;7667;51.232;17.110;2023-07-09T01:53:46;5.87;;;5.27;;
15132;SDS011;7667;51.232;17.110;2023-07-09T01:56:14;9.90;;;5.53;;
15132;SDS011;7667;51.232;17.110;2023-07-09T01:58:41;8.07;;;5.60;;
15132;SDS011;7667;51.232;17.110;2023-07-09T02:01:09;6.43;;;5.30;;
15132;SDS011;7667;51.232;17.110;2023-07-09T02:03:37;8.90;;;5.50;;
15132;SDS011;7667;51.232;17.110;2023-07-09T02:06:05;6.33;;;5.40;;
15132;SDS011;7667;51.232;17.110;2023-07-09T02:08:36;6.43;;;5.57;;
15132;SDS011;7667;51.232;17.110;2023-07-09T02:11:04;6.20;;;5.23;;
15132;SDS011;7667;51.232;17.110;2023-07-09T02:13:32;5.63;;;5.07;;
15132;SDS011;7667;51.232;17.110;2023-07-09T02:16:00;8.03;;;5.73;;
15132;SDS011;7667;51.232;17.110;2023-07-09T02:18:28;8.73;;;5.40;;
15132;SDS011;7667;51.232;17.110;2023-07-09T02:20:56;6.40;;;5.10;;
15132;SDS011;7667;51.232;17.110;2023-07-09T02:23:28;7.63;;;5.60;;
15132;SDS011;7667;51.232;17.110;2023-07-09T02:25:56;5.37;;;4.87;;
15132;SDS011;7667;51.232;17.110;2023-07-09T02:28:23;6.93;;;5.87;;
15132;SDS011;7667;51.232;17.110;2023-07-09T02:30:51;7.10;;;5.77;;
15132;SDS011;7667;51.232;17.110;2023-07-09T02:33:19;5.53;;;5.03;;
15132;SDS011;7667;51.232;17.110;2023-07-09T02:35:47;6.33;;;5.57;;
15132;SDS011;7667;51.232;17.110;2023-07-09T02:38:15;8.67;;;5.53;;
15132;SDS011;7667;51.232;17.110;2023-07-09T02:40:43;6.97;;;5.60;;
15132;SDS011;7667;51.232;17.110;2023-07-09T02:43:10;5.27;;;4.77;;
15132;SDS011;7667;51.232;17.110;2023-07-09T02:45:38;6.70;;;5.40;;
15132;SDS011;7667;51.232;17.110;2023-07-09T02:48:06;6.10;;;5.47;;
15132;SDS011;7667;51.232;17.110;2023-07-09T02:50:33;8.67;;;5.87;;
15132;SDS011;7667;51.232;17.110;2023-07-09T02:53:01;6.40;;;5.80;;
15132;SDS011;7667;51.232;17.110;2023-07-09T02:55:29;5.50;;;4.93;;
15132;SDS011;7667;51.232;17.110;2023-07-09T02:57:56;8.13;;;6.53;;
15132;SDS011;7667;51.232;17.110;2023-07-09T03:00:24;6.83;;;5.93;;
15132;SDS011;7667;51.232;17.110;2023-07-09T03:02:52;6.20;;;5.60;;
15132;SDS011;7667;51.232;17.110;2023-07-09T03:05:20;5.80;;;5.20;;
15132;SDS011;7667;51.232;17.110;2023-07-09T03:07:48;6.13;;;5.53;;
15132;SDS011;7667;51.232;17.110;2023-07-09T03:10:16;7.10;;;6.33;;
15132;SDS011;7667;51.232;17.110;2023-07-09T03:12:43;7.53;;;6.03;;
15132;SDS011;7667;51.232;17.110;2023-07-09T03:15:11;6.40;;;5.80;;
15132;SDS011;7667;51.232;17.110;2023-07-09T03:17:39;6.10;;;5.60;;
15132;SDS011;7667;51.232;17.110;2023-07-09T03:20:07;7.27;;;5.63;;
15132;SDS011;7667;51.232;17.110;2023-07-09T03:22:36;6.23;;;5.63;;
15132;SDS011;7667;51.232;17.110;2023-07-09T03:25:03;6.87;;;5.80;;
15132;SDS011;7667;51.232;17.110;2023-07-09T03:27:31;8.50;;;5.93;;
15132;SDS011;7667;51.232;17.110;2023-07-09T03:29:59;7.00;;;6.30;;
15132;SDS011;7667;51.232;17.110;2023-07-09T03:32:27;6.20;;;5.60;;
15132;SDS011;7667;51.232;17.110;2023-07-09T03:34:55;9.47;;;5.70;;
15132;SDS011;7667;51.232;17.110;2023-07-09T03:37:22;6.37;;;5.77;;
15132;SDS011;7667;51.232;17.110;2023-07-09T03:39:50;8.03;;;5.97;;
15132;SDS011;7667;51.232;17.110;2023-07-09T03:42:18;6.50;;;5.90;;
15132;SDS011;7667;51.232;17.110;2023-07-09T03:44:46;8.07;;;6.17;;
15132;SDS011;7667;51.232;17.110;2023-07-09T03:47:13;7.37;;;5.60;;
15132;SDS011;7667;51.232;17.110;2023-07-09T03:49:41;6.50;;;5.67;;
15132;SDS011;7667;51.232;17.110;2023-07-09T03:52:09;6.47;;;5.20;;
15132;SDS011;7667;51.232;17.110;2023-07-09T03:54:37;5.80;;;5.30;;
15132;SDS011;7667;51.232;17.110;2023-07-09T03:57:04;8.67;;;5.27;;
15132;SDS011;7667;51.232;17.110;2023-07-09T03:59:33;5.73;;;5.10;;
15132;SDS011;7667;51.232;17.110;2023-07-09T04:02:00;5.63;;;4.73;;
15132;SDS011;7667;51.232;17.110;2023-07-09T04:04:29;5.87;;;5.27;;
15132;SDS011;7667;51.232;17.110;2023-07-09T04:06:57;6.00;;;4.87;;
15132;SDS011;7667;51.232;17.110;2023-07-09T04:09:25;5.60;;;5.10;;
15132;SDS011;7667;51.232;17.110;2023-07-09T04:11:53;6.00;;;5.20;;
15132;SDS011;7667;51.232;17.110;2023-07-09T04:14:20;5.93;;;5.13;;
15132;SDS011;7667;51.232;17.110;2023-07-09T04:16:48;5.53;;;4.97;;
15132;SDS011;7667;51.232;17.110;2023-07-09T04:19:16;6.87;;;5.17;;
15132;SDS011;7667;51.232;17.110;2023-07-09T04:21:43;5.83;;;5.23;;
15132;SDS011;7667;51.232;17.110;2023-07-09T04:24:11;5.47;;;4.97;;
15132;SDS011;7667;51.232;17.110;2023-07-09T04:26:41;6.40;;;4.93;;
15132;SDS011;7667;51.232;17.110;2023-07-09T04:29:09;7.37;;;4.70;;
15132;SDS011;7667;51.232;17.110;2023-07-09T04:31:38;6.17;;;4.90;;
15132;SDS011;7667;51.232;17.110;2023-07-09T04:34:07;5.57;;;5.07;;
15132;SDS011;7667;51.232;17.110;2023-07-09T04:36:35;6.23;;;5.63;;
15132;SDS011;7667;51.232;17.110;2023-07-09T04:39:03;5.83;;;5.23;;
15132;SDS011;7667;51.232;17.110;2023-07-09T04:41:31;5.40;;;4.90;;
15132;SDS011;7667;51.232;17.110;2023-07-09T04:44:00;8.27;;;5.70;;
15132;SDS011;7667;51.232;17.110;2023-07-09T04:46:27;6.07;;;5.13;;
15132;SDS011;7667;51.232;17.110;2023-07-09T04:48:55;6.00;;;5.40;;
15132;SDS011;7667;51.232;17.110;2023-07-09T04:51:23;6.00;;;5.50;;
15132;SDS011;7667;51.232;17.110;2023-07-09T04:53:50;5.90;;;4.93;;
15132;SDS011;7667;51.232;17.110;2023-07-09T04:56:18;6.53;;;5.50;;
15132;SDS011;7667;51.232;17.110;2023-07-09T04:58:46;5.77;;;5.20;;
15132;SDS011;7667;51.232;17.110;2023-07-09T05:01:16;7.20;;;5.77;;
15132;SDS011;7667;51.232;17.110;2023-07-09T05:03:43;6.50;;;5.80;;
15132;SDS011;7667;51.232;17.110;2023-07-09T05:06:11;6.47;;;5.87;;
15132;SDS011;7667;51.232;17.110;2023-07-09T05:08:39;6.73;;;6.00;;
15132;SDS011;7667;51.232;17.110;2023-07-09T05:11:07;6.73;;;6.00;;
15132;SDS011;7667;51.232;17.110;2023-07-09T05:13:35;8.20;;;7.40;;
15132;SDS011;7667;51.232;17.110;2023-07-09T05:16:03;8.57;;;6.73;;
15132;SDS011;7667;51.232;17.110;2023-07-09T05:18:31;7.60;;;6.90;;
15132;SDS011;7667;51.232;17.110;2023-07-09T05:20:59;7.47;;;6.77;;
15132;SDS011;7667;51.232;17.110;2023-07-09T05:23:27;7.50;;;6.73;;
15132;SDS011;7667;51.232;17.110;2023-07-09T05:26:01;7.20;;;6.50;;
15132;SDS011;7667;51.232;17.110;2023-07-09T05:28:30;9.17;;;6.60;;
15132;SDS011;7667;51.232;17.110;2023-07-09T05:30:59;7.60;;;6.70;;
15132;SDS011;7667;51.232;17.110;2023-07-09T05:33:27;8.87;;;7.67;;
15132;SDS011;7667;51.232;17.110;2023-07-09T05:35:55;7.97;;;7.07;;
15132;SDS011;7667;51.232;17.110;2023-07-09T05:38:23;9.20;;;7.30;;
15132;SDS011;7667;51.232;17.110;2023-07-09T05:41:03;8.40;;;6.60;;
15132;SDS011;7667;51.232;17.110;2023-07-09T05:43:31;8.00;;;6.50;;
15132;SDS011;7667;51.232;17.110;2023-07-09T05:46:00;7.30;;;6.50;;
15132;SDS011;7667;51.232;17.110;2023-07-09T05:48:32;10.80;;;6.50;;
15132;SDS011;7667;51.232;17.110;2023-07-09T05:51:00;10.20;;;7.03;;
15132;SDS011;7667;51.232;17.110;2023-07-09T05:53:28;9.40;;;6.77;;
15132;SDS011;7667;51.232;17.110;2023-07-09T05:55:55;8.93;;;6.73;;
15132;SDS011;7667;51.232;17.110;2023-07-09T05:58:23;8.13;;;7.33;;
15132;SDS011;7667;51.232;17.110;2023-07-09T06:00:54;9.37;;;7.40;;
15132;SDS011;7667;51.232;17.110;2023-07-09T06:03:25;8.00;;;6.47;;
15132;SDS011;7667;51.232;17.110;2023-07-09T06:05:54;6.90;;;6.20;;
15132;SDS011;7667;51.232;17.110;2023-07-09T06:08:24;7.65;;;6.38;;
15132;SDS011;7667;51.232;17.110;2023-07-09T06:10:54;7.28;;;6.18;;
15132;SDS011;7667;51.232;17.110;2023-07-09T06:13:29;9.20;;;5.97;;
15132;SDS011;7667;51.232;17.110;2023-07-09T06:15:58;7.45;;;6.30;;
15132;SDS011;7667;51.232;17.110;2023-07-09T06:18:28;7.13;;;5.65;;
15132;SDS011;7667;51.232;17.110;2023-07-09T06:20:58;6.20;;;5.53;;
15132;SDS011;7667;51.232;17.110;2023-07-09T06:23:28;5.22;;;4.72;;
15132;SDS011;7667;51.232;17.110;2023-07-09T06:25:56;6.43;;;5.47;;
15132;SDS011;7667;51.232;17.110;2023-07-09T06:28:25;6.55;;;5.85;;
15132;SDS011;7667;51.232;17.110;2023-07-09T06:30:57;6.03;;;5.43;;
15132;SDS011;7667;51.232;17.110;2023-07-09T06:33:26;7.15;;;5.20;;
15132;SDS011;7667;51.232;17.110;2023-07-09T06:35:58;6.38;;;5.13;;
15132;SDS011;7667;51.232;17.110;2023-07-09T06:38:28;6.10;;;5.13;;
15132;SDS011;7667;51.232;17.110;2023-07-09T06:40:56;6.22;;;4.95;;
15132;SDS011;7667;51.232;17.110;2023-07-09T06:43:24;6.03;;;4.88;;
15132;SDS011;7667;51.232;17.110;2023-07-09T06:45:54;6.50;;;4.80;;
15132;SDS011;7667;51.232;17.110;2023-07-09T06:48:25;6.38;;;5.05;;
15132;SDS011;7667;51.232;17.110;2023-07-09T06:50:55;6.55;;;5.18;;
15132;SDS011;7667;51.232;17.110;2023-07-09T06:53:25;6.05;;;4.63;;
15132;SDS011;7667;51.232;17.110;2023-07-09T06:55:55;7.82;;;4.97;;
15132;SDS011;7667;51.232;17.110;2023-07-09T06:58:27;5.57;;;4.00;;
15132;SDS011;7667;51.232;17.110;2023-07-09T07:01:00;5.93;;;4.32;;
15132;SDS011;7667;51.232;17.110;2023-07-09T07:03:31;5.60;;;4.03;;
15132;SDS011;7667;51.232;17.110;2023-07-09T07:06:00;7.53;;;3.92;;
15132;SDS011;7667;51.232;17.110;2023-07-09T07:08:30;4.30;;;3.90;;
15132;SDS011;7667;51.232;17.110;2023-07-09T07:10:58;7.13;;;4.22;;
15132;SDS011;7667;51.232;17.110;2023-07-09T07:13:40;4.82;;;4.32;;
15132;SDS011;7667;51.232;17.110;2023-07-09T07:16:10;4.93;;;4.07;;
15132;SDS011;7667;51.232;17.110;2023-07-09T07:18:39;4.40;;;3.92;;
15132;SDS011;7667;51.232;17.110;2023-07-09T07:21:08;6.35;;;3.80;;
15132;SDS011;7667;51.232;17.110;2023-07-09T07:23:36;4.68;;;3.60;;
15132;SDS011;7667;51.232;17.110;2023-07-09T07:26:03;4.10;;;3.40;;
15132;SDS011;7667;51.232;17.110;2023-07-09T07:28:33;4.82;;;3.75;;
15132;SDS011;7667;51.232;17.110;2023-07-09T07:31:06;4.85;;;3.95;;
15132;SDS011;7667;51.232;17.110;2023-07-09T07:33:37;4.70;;;3.38;;
15132;SDS011;7667;51.232;17.110;2023-07-09T07:36:07;5.30;;;4.28;;
15132;SDS011;7667;51.232;17.110;2023-07-09T07:38:39;5.50;;;4.25;;
15132;SDS011;7667;51.232;17.110;2023-07-09T07:41:07;7.32;;;5.22;;
15132;SDS011;7667;51.232;17.110;2023-07-09T07:43:35;7.40;;;5.30;;
15132;SDS011;7667;51.232;17.110;2023-07-09T07:46:02;7.03;;;5.47;;
15132;SDS011;7667;51.232;17.110;2023-07-09T07:48:31;6.07;;;5.47;;
15132;SDS011;7667;51.232;17.110;2023-07-09T07:50:59;6.75;;;5.38;;
15132;SDS011;7667;51.232;17.110;2023-07-09T07:53:30;10.48;;;6.20;;
15132;SDS011;7667;51.232;17.110;2023-07-09T07:55:57;7.65;;;5.47;;
15132;SDS011;7667;51.232;17.110;2023-07-09T07:58:26;6.57;;;5.63;;
15132;SDS011;7667;51.232;17.110;2023-07-09T08:00:54;6.90;;;5.35;;
15132;SDS011;7667;51.232;17.110;2023-07-09T08:03:23;6.25;;;5.57;;
15132;SDS011;7667;51.232;17.110;2023-07-09T08:05:52;6.40;;;5.63;;
15132;SDS011;7667;51.232;17.110;2023-07-09T08:08:20;5.80;;;4.78;;
15132;SDS011;7667;51.232;17.110;2023-07-09T08:10:51;5.53;;;5.03;;
15132;SDS011;7667;51.232;17.110;2023-07-09T08:13:27;5.95;;;4.35;;
15132;SDS011;7667;51.232;17.110;2023-07-09T08:15:55;7.68;;;4.07;;
15132;SDS011;7667;51.232;17.110;2023-07-09T08:18:23;6.85;;;4.20;;
15132;SDS011;7667;51.232;17.110;2023-07-09T08:20:51;4.90;;;4.00;;
15132;SDS011;7667;51.232;17.110;2023-07-09T08:23:18;5.10;;;4.60;;
15132;SDS011;7667;51.232;17.110;2023-07-09T08:25:56;7.35;;;4.68;;
15132;SDS011;7667;51.232;17.110;2023-07-09T08:28:25;5.30;;;4.00;;
15132;SDS011;7667;51.232;17.110;2023-07-09T08:30:53;4.95;;;3.85;;
15132;SDS011;7667;51.232;17.110;2023-07-09T08:33:22;5.65;;;4.28;;
15132;SDS011;7667;51.232;17.110;2023-07-09T08:35:51;4.47;;;4.07;;
15132;SDS011;7667;51.232;17.110;2023-07-09T08:38:21;5.32;;;4.07;;
15132;SDS011;7667;51.232;17.110;2023-07-09T08:40:50;5.97;;;4.38;;
15132;SDS011;7667;51.232;17.110;2023-07-09T08:43:31;3.80;;;3.25;;
15132;SDS011;7667;51.232;17.110;2023-07-09T08:46:02;4.72;;;3.60;;
15132;SDS011;7667;51.232;17.110;2023-07-09T08:48:44;5.00;;;3.50;;
15132;SDS011;7667;51.232;17.110;2023-07-09T08:51:17;4.78;;;3.60;;
15132;SDS011;7667;51.232;17.110;2023-07-09T08:54:09;5.55;;;3.10;;
15132;SDS011;7667;51.232;17.110;2023-07-09T08:57:10;3.50;;;3.00;;
15132;SDS011;7667;51.232;17.110;2023-07-09T08:59:51;3.03;;;2.72;;
15132;SDS011;7667;51.232;17.110;2023-07-09T09:02:36;3.38;;;3.08;;
15132;SDS011;7667;51.232;17.110;2023-07-09T09:05:14;4.75;;;3.30;;
15132;SDS011;7667;51.232;17.110;2023-07-09T09:07:49;3.65;;;3.28;;
15132;SDS011;7667;51.232;17.110;2023-07-09T09:10:44;3.83;;;2.92;;
15132;SDS011;7667;51.232;17.110;2023-07-09T09:13:16;3.58;;;3.20;;
15132;SDS011;7667;51.232;17.110;2023-07-09T09:15:47;3.88;;;2.90;;
15132;SDS011;7667;51.232;17.110;2023-07-09T09:18:21;4.72;;;2.63;;
15132;SDS011;7667;51.232;17.110;2023-07-09T09:21:36;2.85;;;2.55;;
15132;SDS011;7667;51.232;17.110;2023-07-09T09:23:54;3.22;;;2.80;;
15132;SDS011;7667;51.232;17.110;2023-07-09T09:26:28;3.05;;;2.75;;
15132;SDS011;7667;51.232;17.110;2023-07-09T09:29:00;4.28;;;2.90;;
15132;SDS011;7667;51.232;17.110;2023-07-09T09:31:29;3.50;;;2.80;;
15132;SDS011;7667;51.232;17.110;2023-07-09T09:33:57;3.95;;;2.70;;
15132;SDS011;7667;51.232;17.110;2023-07-09T09:36:25;3.95;;;2.78;;
15132;SDS011;7667;51.232;17.110;2023-07-09T09:38:53;2.90;;;2.65;;
15132;SDS011;7667;51.232;17.110;2023-07-09T09:41:22;5.10;;;3.10;;
15132;SDS011;7667;51.232;17.110;2023-07-09T09:43:53;4.55;;;2.90;;
15132;SDS011;7667;51.232;17.110;2023-07-09T09:46:26;5.15;;;3.10;;
15132;SDS011;7667;51.232;17.110;2023-07-09T09:48:54;3.17;;;2.88;;
15132;SDS011;7667;51.232;17.110;2023-07-09T09:51:28;3.40;;;3.00;;
15132;SDS011;7667;51.232;17.110;2023-07-09T09:54:00;4.70;;;3.40;;
15132;SDS011;7667;51.232;17.110;2023-07-09T09:56:30;3.35;;;2.72;;
15132;SDS011;7667;51.232;17.110;2023-07-09T09:59:04;3.00;;;2.70;;
15132;SDS011;7667;51.232;17.110;2023-07-09T10:01:33;3.30;;;3.00;;
15132;SDS011;7667;51.232;17.110;2023-07-09T10:04:03;3.03;;;2.38;;
15132;SDS011;7667;51.232;17.110;2023-07-09T10:06:37;3.65;;;3.00;;
15132;SDS011;7667;51.232;17.110;2023-07-09T10:15:31;3.33;;;2.83;;
15132;SDS011;7667;51.232;17.110;2023-07-09T10:22:19;3.63;;;2.83;;
15132;SDS011;7667;51.232;17.110;2023-07-09T10:25:13;2.88;;;2.58;;
15132;SDS011;7667;51.232;17.110;2023-07-09T10:31:07;3.80;;;2.55;;
15132;SDS011;7667;51.232;17.110;2023-07-09T10:33:51;2.60;;;2.40;;
15132;SDS011;7667;51.232;17.110;2023-07-09T10:37:17;3.88;;;2.67;;
15132;SDS011;7667;51.232;17.110;2023-07-09T10:39:53;3.90;;;2.80;;
15132;SDS011;7667;51.232;17.110;2023-07-09T10:45:32;3.00;;;2.65;;
15132;SDS011;7667;51.232;17.110;2023-07-09T10:48:20;2.92;;;2.60;;
15132;SDS011;7667;51.232;17.110;2023-07-09T10:51:04;3.60;;;2.70;;
15132;SDS011;7667;51.232;17.110;2023-07-09T10:54:30;4.07;;;2.72;;
15132;SDS011;7667;51.232;17.110;2023-07-09T10:59:56;3.42;;;3.13;;
15132;SDS011;7667;51.232;17.110;2023-07-09T11:02:26;3.20;;;2.90;;
15132;SDS011;7667;51.232;17.110;2023-07-09T11:04:59;3.95;;;2.90;;
15132;SDS011;7667;51.232;17.110;2023-07-09T11:07:31;3.30;;;3.00;;
15132;SDS011;7667;51.232;17.110;2023-07-09T11:10:29;3.53;;;3.20;;
15132;SDS011;7667;51.232;17.110;2023-07-09T11:13:19;3.50;;;3.20;;
15132;SDS011;7667;51.232;17.110;2023-07-09T11:16:29;3.35;;;3.05;;
15132;SDS011;7667;51.232;17.110;2023-07-09T11:19:06;3.17;;;2.75;;
15132;SDS011;7667;51.232;17.110;2023-07-09T11:24:36;3.00;;;2.70;;
15132;SDS011;7667;51.232;17.110;2023-07-09T11:27:30;3.53;;;3.13;;
15132;SDS011;7667;51.232;17.110;2023-07-09T11:30:00;3.88;;;3.10;;
15132;SDS011;7667;51.232;17.110;2023-07-09T11:32:47;3.38;;;2.47;;
15132;SDS011;7667;51.232;17.110;2023-07-09T11:35:22;2.88;;;2.58;;
15132;SDS011;7667;51.232;17.110;2023-07-09T11:37:54;4.95;;;3.33;;
15132;SDS011;7667;51.232;17.110;2023-07-09T11:40:22;4.70;;;3.00;;
15132;SDS011;7667;51.232;17.110;2023-07-09T11:42:57;3.20;;;2.90;;
15132;SDS011;7667;51.232;17.110;2023-07-09T11:45:28;3.10;;;2.80;;
15132;SDS011;7667;51.232;17.110;2023-07-09T11:50:54;3.10;;;2.80;;
15132;SDS011;7667;51.232;17.110;2023-07-09T11:56:20;3.08;;;2.78;;
15132;SDS011;7667;51.232;17.110;2023-07-09T11:58:59;2.83;;;2.63;;
15132;SDS011;7667;51.232;17.110;2023-07-09T12:01:28;5.65;;;3.10;;
15132;SDS011;7667;51.232;17.110;2023-07-09T12:04:15;3.45;;;2.90;;
15132;SDS011;7667;51.232;17.110;2023-07-09T12:06:45;3.03;;;2.72;;
15132;SDS011;7667;51.232;17.110;2023-07-09T12:09:14;4.55;;;2.95;;
15132;SDS011;7667;51.232;17.110;2023-07-09T12:11:48;4.45;;;3.20;;
15132;SDS011;7667;51.232;17.110;2023-07-09T12:14:18;3.85;;;2.70;;
15132;SDS011;7667;51.232;17.110;2023-07-09T12:16:52;3.47;;;2.90;;
15132;SDS011;7667;51.232;17.110;2023-07-09T12:19:23;3.75;;;2.75;;
15132;SDS011;7667;51.232;17.110;2023-07-09T12:21:52;3.58;;;2.95;;
15132;SDS011;7667;51.232;17.110;2023-07-09T12:24:28;3.53;;;3.22;;
15132;SDS011;7667;51.232;17.110;2023-07-09T12:27:03;3.92;;;2.85;;
15132;SDS011;7667;51.232;17.110;2023-07-09T12:29:50;5.13;;;3.00;;
15132;SDS011;7667;51.232;17.110;2023-07-09T12:32:21;3.90;;;2.92;;
15132;SDS011;7667;51.232;17.110;2023-07-09T12:34:54;3.47;;;2.97;;
15132;SDS011;7667;51.232;17.110;2023-07-09T12:37:24;3.17;;;2.90;;
15132;SDS011;7667;51.232;17.110;2023-07-09T12:39:55;3.28;;;2.85;;
15132;SDS011;7667;51.232;17.110;2023-07-09T12:42:31;5.63;;;2.90;;
15132;SDS011;7667;51.232;17.110;2023-07-09T12:45:02;6.03;;;3.13;;
15132;SDS011;7667;51.232;17.110;2023-07-09T12:47:32;3.55;;;3.03;;
15132;SDS011;7667;51.232;17.110;2023-07-09T12:50:08;3.00;;;2.67;;
15132;SDS011;7667;51.232;17.110;2023-07-09T12:53:00;3.22;;;2.90;;
15132;SDS011;7667;51.232;17.110;2023-07-09T12:55:44;3.30;;;2.40;;
15132;SDS011;7667;51.232;17.110;2023-07-09T12:58:18;3.47;;;2.60;;
15132;SDS011;7667;51.232;17.110;2023-07-09T13:00:54;4.35;;;2.78;;
15132;SDS011;7667;51.232;17.110;2023-07-09T13:03:28;3.33;;;2.80;;
15132;SDS011;7667;51.232;17.110;2023-07-09T13:05:59;2.78;;;2.40;;
15132;SDS011;7667;51.232;17.110;2023-07-09T13:08:41;2.85;;;2.53;;
15132;SDS011;7667;51.232;17.110;2023-07-09T13:11:14;3.67;;;2.25;;
15132;SDS011;7667;51.232;17.110;2023-07-09T13:14:01;3.30;;;3.00;;
15132;SDS011;7667;51.232;17.110;2023-07-09T13:16:37;3.33;;;2.58;;
15132;SDS011;7667;51.232;17.110;2023-07-09T13:19:10;3.05;;;2.40;;
15132;SDS011;7667;51.232;17.110;2023-07-09T13:21:38;3.92;;;2.50;;
15132;SDS011;7667;51.232;17.110;2023-07-09T13:24:23;3.50;;;2.63;;
15132;SDS011;7667;51.232;17.110;2023-07-09T13:26:54;3.67;;;2.58;;
15132;SDS011;7667;51.232;17.110;2023-07-09T13:29:26;3.50;;;2.78;;
15132;SDS011;7667;51.232;17.110;2023-07-09T13:31:55;3.45;;;2.70;;
15132;SDS011;7667;51.232;17.110;2023-07-09T13:34:25;2.63;;;2.30;;
15132;SDS011;7667;51.232;17.110;2023-07-09T13:36:54;3.13;;;2.60;;
15132;SDS011;7667;51.232;17.110;2023-07-09T13:39:25;3.60;;;2.75;;
15132;SDS011;7667;51.232;17.110;2023-07-09T13:41:54;3.90;;;2.47;;
15132;SDS011;7667;51.232;17.110;2023-07-09T13:44:24;4.03;;;2.80;;
15132;SDS011;7667;51.232;17.110;2023-07-09T13:46:55;3.38;;;2.53;;
15132;SDS011;7667;51.232;17.110;2023-07-09T13:49:24;3.20;;;2.65;;
15132;SDS011;7667;51.232;17.110;2023-07-09T13:51:55;2.80;;;2.45;;
15132;SDS011;7667;51.232;17.110;2023-07-09T13:54:29;3.88;;;2.47;;
15132;SDS011;7667;51.232;17.110;2023-07-09T13:57:03;3.05;;;2.75;;
15132;SDS011;7667;51.232;17.110;2023-07-09T13:59:33;3.13;;;2.25;;
15132;SDS011;7667;51.232;17.110;2023-07-09T14:02:00;5.85;;;3.10;;
15132;SDS011;7667;51.232;17.110;2023-07-09T14:04:32;2.90;;;2.70;;
15132;SDS011;7667;51.232;17.110;2023-07-09T14:07:00;2.47;;;2.28;;
15132;SDS011;7667;51.232;17.110;2023-07-09T14:09:28;3.70;;;2.50;;
15132;SDS011;7667;51.232;17.110;2023-07-09T14:11:56;2.55;;;2.35;;
15132;SDS011;7667;51.232;17.110;2023-07-09T14:14:25;2.33;;;2.13;;
15132;SDS011;7667;51.232;17.110;2023-07-09T14:16:59;2.40;;;2.20;;
15132;SDS011;7667;51.232;17.110;2023-07-09T14:19:27;3.33;;;2.90;;
15132;SDS011;7667;51.232;17.110;2023-07-09T14:21:55;3.35;;;2.60;;
15132;SDS011;7667;51.232;17.110;2023-07-09T14:24:24;3.28;;;2.70;;
15132;SDS011;7667;51.232;17.110;2023-07-09T14:26:56;2.78;;;2.42;;
15132;SDS011;7667;51.232;17.110;2023-07-09T14:29:25;3.65;;;2.70;;
15132;SDS011;7667;51.232;17.110;2023-07-09T14:31:53;2.58;;;2.38;;
15132;SDS011;7667;51.232;17.110;2023-07-09T14:34:32;5.10;;;2.53;;
15132;SDS011;7667;51.232;17.110;2023-07-09T14:37:00;4.88;;;2.45;;
15132;SDS011;7667;51.232;17.110;2023-07-09T14:39:28;3.33;;;2.55;;
15132;SDS011;7667;51.232;17.110;2023-07-09T14:41:56;3.70;;;2.50;;
15132;SDS011;7667;51.232;17.110;2023-07-09T14:44:27;2.85;;;2.58;;
15132;SDS011;7667;51.232;17.110;2023-07-09T14:46:58;4.03;;;2.55;;
15132;SDS011;7667;51.232;17.110;2023-07-09T14:49:27;3.35;;;2.70;;
15132;SDS011;7667;51.232;17.110;2023-07-09T14:51:55;3.10;;;2.45;;
15132;SDS011;7667;51.232;17.110;2023-07-09T14:54:24;2.53;;;2.33;;
15132;SDS011;7667;51.232;17.110;2023-07-09T14:56:57;3.05;;;2.33;;
15132;SDS011;7667;51.232;17.110;2023-07-09T14:59:26;3.47;;;2.40;;
15132;SDS011;7667;51.232;17.110;2023-07-09T15:01:54;2.67;;;2.42;;
15132;SDS011;7667;51.232;17.110;2023-07-09T15:06:53;2.70;;;2.50;;
15132;SDS011;7667;51.232;17.110;2023-07-09T15:09:23;3.70;;;2.70;;
15132;SDS011;7667;51.232;17.110;2023-07-09T15:11:57;2.83;;;2.45;;
15132;SDS011;7667;51.232;17.110;2023-07-09T15:14:26;2.50;;;2.30;;
15132;SDS011;7667;51.232;17.110;2023-07-09T15:16:54;3.15;;;2.40;;
15132;SDS011;7667;51.232;17.110;2023-07-09T15:19:26;2.40;;;2.20;;
15132;SDS011;7667;51.232;17.110;2023-07-09T15:21:55;3.88;;;2.47;;
15132;SDS011;7667;51.232;17.110;2023-07-09T15:24:30;3.22;;;2.50;;
15132;SDS011;7667;51.232;17.110;2023-07-09T15:27:01;4.30;;;2.55;;
15132;SDS011;7667;51.232;17.110;2023-07-09T15:29:31;3.55;;;2.47;;
15132;SDS011;7667;51.232;17.110;2023-07-09T15:31:59;4.38;;;2.33;;
15132;SDS011;7667;51.232;17.110;2023-07-09T15:34:27;3.53;;;2.92;;
15132;SDS011;7667;51.232;17.110;2023-07-09T15:36:55;3.10;;;2.80;;
15132;SDS011;7667;51.232;17.110;2023-07-09T15:39:23;3.83;;;2.90;;
15132;SDS011;7667;51.232;17.110;2023-07-09T15:41:52;3.33;;;3.03;;
15132;SDS011;7667;51.232;17.110;2023-07-09T15:44:20;3.47;;;2.70;;
15132;SDS011;7667;51.232;17.110;2023-07-09T15:46:51;3.72;;;2.55;;
15132;SDS011;7667;51.232;17.110;2023-07-09T15:49:21;3.90;;;2.95;;